Time;durP1;ratioP1;P1;durP2;ratioP2;P2;SDS_P1;SDS_P2;PMS_P1;PMS_P2;Temp;Humidity;BMP_temperature;BMP_pressure;BME280_temperature;BME280_humidity;BME280_pressure;Samples;Min_cycle;Max_cycle;Signal;HPM_P1;HPM_P2
2023/08/14 00:00:44;;;;;;;10.20;7.90;;;;;;;;;;107048;1255;61347;-81
2023/08/14 00:03:31;;;;;;;9.60;8.50;;;;;;;;;;107087;1253;61270;-80
2023/08/14 00:05:57;;;;;;;10.20;7.80;;;;;;;;;;107169;1251;61237;-81
2023/08/14 00:08:24;;;;;;;11.70;8.90;;;;;;;;;;107190;1256;62364;-81
2023/08/14 00:10:51;;;;;;;13.20;9.50;;;;;;;;;;107070;1251;61200;-80
2023/08/14 00:13:20;;;;;;;11.90;8.90;;;;;;;;;;107065;1251;61363;-80
2023/08/14 00:15:47;;;;;;;10.10;9.00;;;;;;;;;;107101;1250;61334;-80
2023/08/14 00:18:13;;;;;;;10.60;8.30;;;;;;;;;;107071;1252;61244;-81
2023/08/14 00:20:40;;;;;;;9.50;8.20;;;;;;;;;;107113;1251;62485;-80
2023/08/14 00:23:06;;;;;;;15.20;8.70;;;;;;;;;;107084;1253;61350;-81
2023/08/14 00:25:33;;;;;;;13.20;8.40;;;;;;;;;;107119;1250;61323;-80
2023/08/14 00:27:59;;;;;;;11.00;9.30;;;;;;;;;;107060;1254;61352;-80
2023/08/14 00:30:26;;;;;;;10.90;9.50;;;;;;;;;;107068;1256;61299;-81
2023/08/14 00:32:52;;;;;;;13.60;9.40;;;;;;;;;;107053;1255;61236;-81
2023/08/14 00:35:19;;;;;;;11.70;8.50;;;;;;;;;;107049;1253;61335;-80
2023/08/14 00:37:46;;;;;;;11.20;9.40;;;;;;;;;;107096;1255;61329;-80
2023/08/14 00:40:13;;;;;;;13.70;9.60;;;;;;;;;;107011;1255;61221;-81
2023/08/14 00:42:40;;;;;;;13.90;10.20;;;;;;;;;;107084;1254;59615;-81
2023/08/14 00:45:07;;;;;;;11.80;9.60;;;;;;;;;;107115;1255;61225;-80
2023/08/14 00:47:34;;;;;;;11.80;10.40;;;;;;;;;;107041;1254;61133;-81
2023/08/14 00:50:01;;;;;;;13.20;9.50;;;;;;;;;;107084;1255;61271;-80
2023/08/14 00:52:31;;;;;;;13.30;9.50;;;;;;;;;;107049;1253;61198;-81
2023/08/14 00:55:00;;;;;;;13.60;8.80;;;;;;;;;;107123;1255;61224;-81
2023/08/14 00:57:27;;;;;;;10.70;9.30;;;;;;;;;;107234;1254;61247;-81
2023/08/14 00:59:54;;;;;;;10.50;9.30;;;;;;;;;;107083;1251;61341;-81
2023/08/14 01:02:21;;;;;;;16.70;9.70;;;;;;;;;;107251;1250;61173;-81
2023/08/14 01:04:47;;;;;;;10.70;9.20;;;;;;;;;;107112;1253;61307;-81
2023/08/14 01:07:14;;;;;;;14.20;9.60;;;;;;;;;;107217;1253;61071;-81
2023/08/14 01:09:40;;;;;;;13.20;9.70;;;;;;;;;;107592;1256;61202;-81
2023/08/14 01:12:07;;;;;;;16.20;10.70;;;;;;;;;;107091;1251;61344;-81
2023/08/14 01:14:33;;;;;;;15.00;9.90;;;;;;;;;;107685;1253;61251;-81
2023/08/14 01:17:00;;;;;;;14.70;10.40;;;;;;;;;;107058;1256;61429;-81
2023/08/14 01:19:29;;;;;;;14.50;10.30;;;;;;;;;;107105;1251;61264;-81
2023/08/14 01:22:02;;;;;;;12.30;9.70;;;;;;;;;;107050;1256;62036;-81
2023/08/14 01:24:47;;;;;;;15.40;10.50;;;;;;;;;;107120;1253;59263;-81
2023/08/14 01:27:13;;;;;;;15.70;9.60;;;;;;;;;;107125;1254;61245;-81
2023/08/14 01:29:40;;;;;;;13.40;9.40;;;;;;;;;;107036;1261;59169;-81
2023/08/14 01:32:06;;;;;;;11.70;9.80;;;;;;;;;;107090;1253;62279;-80
2023/08/14 01:34:33;;;;;;;13.70;9.70;;;;;;;;;;107060;1255;61255;-81
2023/08/14 01:37:01;;;;;;;13.80;9.10;;;;;;;;;;107003;1254;61226;-81
2023/08/14 01:39:33;;;;;;;13.20;9.40;;;;;;;;;;107055;1253;61877;-81
2023/08/14 01:42:20;;;;;;;13.40;9.50;;;;;;;;;;107074;1254;61427;-80
2023/08/14 01:44:46;;;;;;;15.40;8.70;;;;;;;;;;107079;1253;61070;-80
2023/08/14 01:47:13;;;;;;;11.90;8.40;;;;;;;;;;107138;1255;61414;-81
2023/08/14 01:49:39;;;;;;;11.90;9.40;;;;;;;;;;107100;1254;61020;-80
2023/08/14 01:52:06;;;;;;;12.20;9.00;;;;;;;;;;107063;1251;62312;-81
2023/08/14 01:54:32;;;;;;;13.80;8.80;;;;;;;;;;107036;1250;61197;-81
2023/08/14 01:56:59;;;;;;;12.40;9.60;;;;;;;;;;107122;1251;61146;-81
2023/08/14 01:59:28;;;;;;;10.90;8.30;;;;;;;;;;107124;1251;61357;-81
2023/08/14 02:01:54;;;;;;;13.60;9.60;;;;;;;;;;107079;1256;61407;-80
2023/08/14 02:04:20;;;;;;;11.00;8.50;;;;;;;;;;107127;1255;61219;-80
2023/08/14 02:06:47;;;;;;;12.10;8.90;;;;;;;;;;107079;1255;61234;-80
2023/08/14 02:09:13;;;;;;;10.00;9.00;;;;;;;;;;107057;1252;61162;-81
2023/08/14 02:11:40;;;;;;;12.30;9.50;;;;;;;;;;107118;1256;61388;-80
2023/08/14 02:14:06;;;;;;;11.60;9.80;;;;;;;;;;107104;1251;61337;-80
2023/08/14 02:16:33;;;;;;;15.00;9.40;;;;;;;;;;107091;1256;61364;-80
2023/08/14 02:18:59;;;;;;;12.00;8.30;;;;;;;;;;107103;1255;61359;-81
2023/08/14 02:21:25;;;;;;;13.00;9.70;;;;;;;;;;106983;1254;61254;-80
2023/08/14 02:23:52;;;;;;;12.00;8.60;;;;;;;;;;107096;1257;61332;-81
2023/08/14 02:26:18;;;;;;;11.90;9.40;;;;;;;;;;107070;1256;61308;-80
2023/08/14 02:28:45;;;;;;;11.20;8.60;;;;;;;;;;107051;1255;61218;-80
2023/08/14 02:31:11;;;;;;;13.90;9.60;;;;;;;;;;107071;1254;60268;-80
2023/08/14 02:33:38;;;;;;;11.40;9.60;;;;;;;;;;107079;1251;61334;-80
2023/08/14 02:36:04;;;;;;;10.60;8.90;;;;;;;;;;107069;1256;59572;-81
2023/08/14 02:38:31;;;;;;;12.30;8.60;;;;;;;;;;107131;1259;61251;-80
2023/08/14 02:40:58;;;;;;;11.00;8.60;;;;;;;;;;107120;1255;61290;-81
2023/08/14 02:43:25;;;;;;;12.10;8.90;;;;;;;;;;107618;1256;60899;-80
2023/08/14 02:45:51;;;;;;;12.00;9.00;;;;;;;;;;107116;1255;61240;-81
2023/08/14 02:48:18;;;;;;;14.20;9.80;;;;;;;;;;107158;1256;61439;-81
2023/08/14 02:50:44;;;;;;;13.60;9.80;;;;;;;;;;107051;1256;61220;-81
2023/08/14 02:53:10;;;;;;;11.20;8.60;;;;;;;;;;107036;1255;61301;-81
2023/08/14 02:55:37;;;;;;;10.40;9.30;;;;;;;;;;107066;1251;61330;-81
2023/08/14 02:58:03;;;;;;;11.80;8.10;;;;;;;;;;107056;1256;59895;-81
2023/08/14 03:00:29;;;;;;;11.30;8.60;;;;;;;;;;107050;1254;61205;-81
2023/08/14 03:02:56;;;;;;;11.30;9.30;;;;;;;;;;107075;1256;61273;-81
2023/08/14 03:05:22;;;;;;;13.50;9.80;;;;;;;;;;106990;1257;61305;-80
2023/08/14 03:07:49;;;;;;;10.30;8.80;;;;;;;;;;107098;1251;61341;-80
2023/08/14 03:10:15;;;;;;;12.70;9.70;;;;;;;;;;107104;1255;61311;-80
2023/08/14 03:12:41;;;;;;;14.60;9.20;;;;;;;;;;107054;1256;61878;-81
2023/08/14 03:15:08;;;;;;;12.70;9.70;;;;;;;;;;107057;1251;61394;-80
2023/08/14 03:17:34;;;;;;;12.60;9.70;;;;;;;;;;108011;1254;61345;-81
2023/08/14 03:20:03;;;;;;;12.20;9.40;;;;;;;;;;107044;1251;61345;-80
2023/08/14 03:22:29;;;;;;;;;;;;;;;;;;107084;1251;61168;-80
2023/08/14 03:24:56;;;;;;;13.50;10.50;;;;;;;;;;107065;1251;61151;-80
2023/08/14 03:27:22;;;;;;;10.80;9.00;;;;;;;;;;107076;1253;61310;-80
2023/08/14 03:29:49;;;;;;;11.60;8.90;;;;;;;;;;107065;1254;61931;-81
2023/08/14 03:32:15;;;;;;;11.00;9.50;;;;;;;;;;107090;1255;59855;-80
2023/08/14 03:34:42;;;;;;;19.00;12.60;;;;;;;;;;107070;1255;59260;-80
2023/08/14 03:37:08;;;;;;;13.00;11.50;;;;;;;;;;107048;1251;63447;-80
2023/08/14 03:39:34;;;;;;;15.40;13.70;;;;;;;;;;107061;1257;61986;-81
2023/08/14 03:42:02;;;;;;;14.20;11.80;;;;;;;;;;107089;1254;61365;-80
2023/08/14 03:44:28;;;;;;;16.40;11.70;;;;;;;;;;107138;1251;61218;-80
2023/08/14 03:46:55;;;;;;;13.60;12.10;;;;;;;;;;107118;1254;61324;-80
2023/08/14 03:49:21;;;;;;;13.10;10.40;;;;;;;;;;107095;1254;61186;-81
2023/08/14 03:51:47;;;;;;;13.30;11.10;;;;;;;;;;107040;1254;61250;-80
2023/08/14 03:54:14;;;;;;;10.70;9.30;;;;;;;;;;107086;1251;61196;-81
2023/08/14 03:56:40;;;;;;;14.10;11.10;;;;;;;;;;107059;1251;62287;-81
2023/08/14 03:59:07;;;;;;;9.30;8.20;;;;;;;;;;107094;1254;61289;-81
2023/08/14 04:01:34;;;;;;;12.50;8.80;;;;;;;;;;107001;1251;61317;-81
2023/08/14 04:04:00;;;;;;;13.90;8.80;;;;;;;;;;107107;1251;61030;-81
2023/08/14 04:06:27;;;;;;;15.60;10.10;;;;;;;;;;107033;1251;61321;-81
2023/08/14 04:08:53;;;;;;;11.60;9.20;;;;;;;;;;107020;1256;61304;-80
2023/08/14 04:11:21;;;;;;;10.70;8.20;;;;;;;;;;107057;1251;61251;-81
2023/08/14 04:13:47;;;;;;;13.70;10.00;;;;;;;;;;107027;1251;61679;-81
2023/08/14 04:16:14;;;;;;;12.70;8.30;;;;;;;;;;107086;1251;61164;-81
2023/08/14 04:18:40;;;;;;;10.50;8.60;;;;;;;;;;107040;1254;61336;-81
2023/08/14 04:21:07;;;;;;;13.30;9.10;;;;;;;;;;107053;1254;60909;-80
2023/08/14 04:23:33;;;;;;;11.30;8.10;;;;;;;;;;107152;1251;61290;-81
2023/08/14 04:25:59;;;;;;;10.30;7.80;;;;;;;;;;107063;1251;61219;-81
2023/08/14 04:28:26;;;;;;;10.10;8.30;;;;;;;;;;107019;1251;61429;-80
2023/08/14 04:30:52;;;;;;;10.00;8.90;;;;;;;;;;106973;1253;61347;-81
2023/08/14 04:33:19;;;;;;;13.40;8.90;;;;;;;;;;107030;1253;61357;-80
2023/08/14 04:35:45;;;;;;;9.60;7.60;;;;;;;;;;107022;1255;61382;-80
2023/08/14 04:38:11;;;;;;;14.00;8.90;;;;;;;;;;107091;1256;61429;-80
2023/08/14 04:40:38;;;;;;;11.00;7.50;;;;;;;;;;107002;1254;61136;-81
2023/08/14 04:43:04;;;;;;;10.00;7.60;;;;;;;;;;107055;1254;61232;-81
2023/08/14 04:45:31;;;;;;;12.40;9.10;;;;;;;;;;107031;1251;61199;-81
2023/08/14 04:47:57;;;;;;;11.90;9.10;;;;;;;;;;107074;1251;61353;-81
2023/08/14 04:50:24;;;;;;;10.10;7.60;;;;;;;;;;107027;1251;62462;-81
2023/08/14 04:52:50;;;;;;;15.70;8.40;;;;;;;;;;107091;1254;61318;-80
2023/08/14 04:55:17;;;;;;;12.40;8.70;;;;;;;;;;107044;1251;61276;-81
2023/08/14 04:57:43;;;;;;;12.10;8.80;;;;;;;;;;107003;1251;61233;-80
2023/08/14 05:00:10;;;;;;;10.10;9.00;;;;;;;;;;107075;1254;62320;-80
2023/08/14 05:02:36;;;;;;;12.70;9.20;;;;;;;;;;107035;1251;61334;-81
2023/08/14 05:05:03;;;;;;;9.50;8.50;;;;;;;;;;107163;1251;60753;-81
2023/08/14 05:07:29;;;;;;;12.60;9.50;;;;;;;;;;107039;1254;61259;-81
2023/08/14 05:09:56;;;;;;;13.10;9.00;;;;;;;;;;107059;1251;61331;-81
2023/08/14 05:12:22;;;;;;;12.00;8.80;;;;;;;;;;107080;1251;61349;-81
2023/08/14 05:14:50;;;;;;;9.50;8.60;;;;;;;;;;107057;1254;61401;-81
2023/08/14 05:17:16;;;;;;;13.60;8.10;;;;;;;;;;107056;1251;61289;-81
2023/08/14 05:19:43;;;;;;;11.30;7.90;;;;;;;;;;107051;1251;61286;-81
2023/08/14 05:22:09;;;;;;;13.20;8.00;;;;;;;;;;107047;1251;61273;-81
2023/08/14 05:24:36;;;;;;;9.20;7.10;;;;;;;;;;107035;1251;61229;-81
2023/08/14 05:27:02;;;;;;;12.00;7.40;;;;;;;;;;107112;1251;61310;-81
2023/08/14 05:29:28;;;;;;;10.30;7.20;;;;;;;;;;107011;1251;62002;-81
2023/08/14 05:31:55;;;;;;;9.40;7.00;;;;;;;;;;106991;1254;61198;-81
2023/08/14 05:34:21;;;;;;;9.60;7.10;;;;;;;;;;107035;1251;62199;-81
2023/08/14 05:36:48;;;;;;;9.60;6.20;;;;;;;;;;107041;1251;61337;-81
2023/08/14 05:39:14;;;;;;;11.20;6.00;;;;;;;;;;107034;1251;61235;-81
2023/08/14 05:41:40;;;;;;;8.80;6.90;;;;;;;;;;107040;1254;61213;-81
2023/08/14 05:44:07;;;;;;;9.40;6.00;;;;;;;;;;107117;1254;61216;-81
2023/08/14 05:46:34;;;;;;;10.90;6.10;;;;;;;;;;107065;1251;61263;-81
2023/08/14 05:49:00;;;;;;;10.10;6.00;;;;;;;;;;107048;1251;61205;-81
2023/08/14 05:51:26;;;;;;;6.50;5.50;;;;;;;;;;107168;1251;61348;-81
2023/08/14 05:53:53;;;;;;;13.00;6.60;;;;;;;;;;107010;1251;61440;-81
2023/08/14 05:56:19;;;;;;;8.00;5.40;;;;;;;;;;107087;1251;61253;-81
2023/08/14 05:58:46;;;;;;;9.30;6.20;;;;;;;;;;107168;1251;61254;-81
2023/08/14 06:01:12;;;;;;;9.90;6.40;;;;;;;;;;107192;1254;61340;-81
2023/08/14 06:03:39;;;;;;;8.20;6.30;;;;;;;;;;107329;1251;61301;-81
2023/08/14 06:06:06;;;;;;;8.50;6.20;;;;;;;;;;107224;1251;61577;-81
2023/08/14 06:08:32;;;;;;;10.30;6.10;;;;;;;;;;107195;1251;61348;-81
2023/08/14 06:10:58;;;;;;;7.30;5.20;;;;;;;;;;107173;1251;61244;-81
2023/08/14 06:13:25;;;;;;;6.90;6.20;;;;;;;;;;107121;1254;61223;-81
2023/08/14 06:15:52;;;;;;;6.50;5.20;;;;;;;;;;107117;1251;61393;-81
2023/08/14 06:18:18;;;;;;;11.20;6.30;;;;;;;;;;107160;1251;61091;-81
2023/08/14 06:20:44;;;;;;;9.20;5.70;;;;;;;;;;107400;1251;61244;-81
2023/08/14 06:23:11;;;;;;;7.40;5.20;;;;;;;;;;107221;1251;61331;-81
2023/08/14 06:25:37;;;;;;;11.30;5.20;;;;;;;;;;107212;1251;62429;-82
2023/08/14 06:28:04;;;;;;;5.90;5.20;;;;;;;;;;107223;1251;61331;-81
2023/08/14 06:30:30;;;;;;;6.30;5.10;;;;;;;;;;107262;1253;61259;-81
2023/08/14 06:32:56;;;;;;;5.60;5.10;;;;;;;;;;107467;1254;61167;-81
2023/08/14 06:35:23;;;;;;;9.20;5.30;;;;;;;;;;107710;1251;61223;-81
2023/08/14 06:37:50;;;;;;;6.70;5.40;;;;;;;;;;107529;1251;61263;-81
2023/08/14 06:40:16;;;;;;;6.20;5.30;;;;;;;;;;107223;1251;62194;-81
2023/08/14 06:42:42;;;;;;;9.10;5.60;;;;;;;;;;107159;1251;61323;-81
2023/08/14 06:45:09;;;;;;;8.60;5.40;;;;;;;;;;107200;1251;61323;-81
2023/08/14 06:47:41;;;;;;;8.30;5.40;;;;;;;;;;107534;1251;61345;-80
2023/08/14 06:50:08;;;;;;;8.00;5.10;;;;;;;;;;107531;1254;61250;-80
2023/08/14 06:52:34;;;;;;;11.00;5.30;;;;;;;;;;107649;1251;61805;-80
2023/08/14 06:55:01;;;;;;;6.80;4.70;;;;;;;;;;109453;1250;59154;-81
2023/08/14 06:57:27;;;;;;;8.00;4.60;;;;;;;;;;109497;1251;58929;-81
2023/08/14 06:59:53;;;;;;;5.80;4.50;;;;;;;;;;109475;1251;58893;-81
2023/08/14 07:02:20;;;;;;;6.60;4.70;;;;;;;;;;109459;1251;59060;-81
2023/08/14 07:04:47;;;;;;;6.50;4.80;;;;;;;;;;109515;1251;58942;-81
2023/08/14 07:07:13;;;;;;;7.50;5.20;;;;;;;;;;109442;1251;60097;-81
2023/08/14 07:09:40;;;;;;;8.60;5.30;;;;;;;;;;109513;1251;58854;-81
2023/08/14 07:12:06;;;;;;;7.30;4.40;;;;;;;;;;109420;1251;151810;-80
2023/08/14 07:14:33;;;;;;;6.90;4.90;;;;;;;;;;109513;1251;58885;-81
2023/08/14 07:16:59;;;;;;;8.70;4.70;;;;;;;;;;109508;1251;59443;-81
2023/08/14 07:19:26;;;;;;;6.00;4.80;;;;;;;;;;108440;1251;62043;-82
2023/08/14 07:21:52;;;;;;;7.00;4.50;;;;;;;;;;107270;1251;61389;-80
2023/08/14 07:24:19;;;;;;;8.70;4.70;;;;;;;;;;107207;1251;61352;-80
2023/08/14 07:26:45;;;;;;;4.40;4.00;;;;;;;;;;107205;1254;59405;-81
2023/08/14 07:29:11;;;;;;;8.10;4.20;;;;;;;;;;107407;1251;59815;-80
2023/08/14 07:31:38;;;;;;;6.80;3.90;;;;;;;;;;107327;1251;61335;-81
2023/08/14 07:34:04;;;;;;;5.40;4.00;;;;;;;;;;107274;1251;61826;-80
2023/08/14 07:36:30;;;;;;;6.70;4.60;;;;;;;;;;107396;1251;61268;-80
2023/08/14 07:38:57;;;;;;;5.80;4.00;;;;;;;;;;107319;1251;61353;-81
2023/08/14 07:41:23;;;;;;;6.70;6.00;;;;;;;;;;107299;1251;61151;-81
2023/08/14 07:43:50;;;;;;;9.90;4.40;;;;;;;;;;107345;1251;61247;-81
2023/08/14 07:46:17;;;;;;;5.60;3.80;;;;;;;;;;107474;1254;61464;-81
2023/08/14 07:48:44;;;;;;;6.50;4.90;;;;;;;;;;107418;1251;61148;-81
2023/08/14 07:51:11;;;;;;;13.40;5.00;;;;;;;;;;107445;1251;61251;-80
2023/08/14 07:53:37;;;;;;;7.30;4.00;;;;;;;;;;107325;1251;61259;-80
2023/08/14 07:56:03;;;;;;;8.80;3.80;;;;;;;;;;107421;1251;61238;-81
2023/08/14 07:58:30;;;;;;;8.00;4.60;;;;;;;;;;107408;1251;61248;-82
2023/08/14 08:00:56;;;;;;;5.10;4.10;;;;;;;;;;107175;1251;61359;-80
2023/08/14 08:03:23;;;;;;;9.30;6.70;;;;;;;;;;107260;1251;61247;-81
2023/08/14 08:05:50;;;;;;;5.00;4.50;;;;;;;;;;107280;1250;61253;-81
2023/08/14 08:08:16;;;;;;;7.30;4.60;;;;;;;;;;107254;1254;61224;-81
2023/08/14 08:10:43;;;;;;;5.50;4.00;;;;;;;;;;107249;1251;61238;-81
2023/08/14 08:13:09;;;;;;;8.10;4.40;;;;;;;;;;107434;1251;61455;-81
2023/08/14 08:15:36;;;;;;;5.10;4.10;;;;;;;;;;107311;1251;61254;-82
2023/08/14 08:18:02;;;;;;;6.00;4.20;;;;;;;;;;107393;1251;60136;-81
2023/08/14 08:20:30;;;;;;;4.60;3.80;;;;;;;;;;107193;1250;61238;-81
2023/08/14 08:22:56;;;;;;;5.20;3.80;;;;;;;;;;107440;1251;61241;-81
2023/08/14 08:25:22;;;;;;;5.70;4.00;;;;;;;;;;107438;1251;61224;-81
2023/08/14 08:27:49;;;;;;;5.50;3.30;;;;;;;;;;107691;1254;61297;-81
2023/08/14 08:30:15;;;;;;;5.30;3.40;;;;;;;;;;107592;1250;61340;-81
2023/08/14 08:32:42;;;;;;;5.20;3.70;;;;;;;;;;107229;1251;59500;-81
2023/08/14 08:35:08;;;;;;;7.70;3.70;;;;;;;;;;107106;1251;61233;-81
2023/08/14 08:37:35;;;;;;;6.80;3.60;;;;;;;;;;107061;1251;62304;-81
2023/08/14 08:40:04;;;;;;;4.10;2.90;;;;;;;;;;106983;1251;61325;-83
2023/08/14 08:42:30;;;;;;;5.60;3.60;;;;;;;;;;106948;1251;62272;-82
2023/08/14 08:44:57;;;;;;;6.20;3.30;;;;;;;;;;106966;1251;61316;-82
2023/08/14 08:47:24;;;;;;;4.40;3.20;;;;;;;;;;107193;1250;61066;-82
2023/08/14 08:49:51;;;;;;;4.10;2.60;;;;;;;;;;107012;1251;61162;-81
2023/08/14 08:52:17;;;;;;;5.40;3.00;;;;;;;;;;106925;1253;61253;-82
2023/08/14 08:54:44;;;;;;;6.70;3.50;;;;;;;;;;106977;1251;61687;-82
2023/08/14 08:57:10;;;;;;;5.60;3.00;;;;;;;;;;107269;1255;61209;-82
2023/08/14 08:59:37;;;;;;;4.20;3.80;;;;;;;;;;106986;1251;61561;-82
2023/08/14 09:02:04;;;;;;;4.90;2.60;;;;;;;;;;107186;1253;61279;-82
2023/08/14 09:04:30;;;;;;;3.80;2.70;;;;;;;;;;107029;1253;61144;-82
2023/08/14 09:06:57;;;;;;;3.70;3.00;;;;;;;;;;106948;1251;59661;-82
2023/08/14 09:09:23;;;;;;;3.40;2.50;;;;;;;;;;107123;1251;61251;-81
2023/08/14 09:11:50;;;;;;;7.20;2.50;;;;;;;;;;107009;1251;61209;-81
2023/08/14 09:14:17;;;;;;;5.80;2.90;;;;;;;;;;106906;1254;61360;-82
2023/08/14 09:16:44;;;;;;;;;;;;;;;;;;106999;1253;61190;-82
2023/08/14 09:19:12;;;;;;;8.60;3.10;;;;;;;;;;107084;1251;62826;-82
2023/08/14 09:21:42;;;;;;;4.70;2.50;;;;;;;;;;107060;1251;61269;-82
2023/08/14 09:24:09;;;;;;;5.50;2.50;;;;;;;;;;107031;1251;61212;-82
2023/08/14 09:26:36;;;;;;;6.20;2.40;;;;;;;;;;107108;1250;61253;-82
2023/08/14 09:29:02;;;;;;;3.30;2.10;;;;;;;;;;107225;1253;61157;-83
2023/08/14 09:31:32;;;;;;;3.30;2.40;;;;;;;;;;107125;1251;60339;-82
2023/08/14 09:33:58;;;;;;;5.70;2.80;;;;;;;;;;107038;1251;61290;-83
2023/08/14 09:36:25;;;;;;;4.80;2.10;;;;;;;;;;107158;1251;61138;-83
2023/08/14 09:38:51;;;;;;;7.30;2.70;;;;;;;;;;107323;1251;61061;-83
2023/08/14 09:41:20;;;;;;;4.80;2.30;;;;;;;;;;107214;1251;61151;-82
2023/08/14 09:43:47;;;;;;;4.10;2.70;;;;;;;;;;107108;1251;62928;-83
2023/08/14 09:46:13;;;;;;;6.90;2.70;;;;;;;;;;107163;1251;61225;-82
2023/08/14 09:48:44;;;;;;;3.40;2.50;;;;;;;;;;107202;1251;61266;-82
2023/08/14 09:51:11;;;;;;;2.90;2.10;;;;;;;;;;106935;1253;61299;-82
2023/08/14 09:53:51;;;;;;;2.90;2.10;;;;;;;;;;106980;1252;59518;-82
2023/08/14 09:56:18;;;;;;;4.60;2.40;;;;;;;;;;106989;1251;63053;-82
2023/08/14 09:58:45;;;;;;;4.70;2.30;;;;;;;;;;107231;1251;60989;-83
2023/08/14 10:01:12;;;;;;;3.60;2.70;;;;;;;;;;106977;1251;61100;-82
2023/08/14 10:03:39;;;;;;;4.90;1.90;;;;;;;;;;106950;1251;61254;-83
2023/08/14 10:06:05;;;;;;;;;;;;;;;;;;107078;1251;61263;-82
2023/08/14 10:08:33;;;;;;;5.10;2.80;;;;;;;;;;107388;1251;61617;-83
2023/08/14 10:11:00;;;;;;;6.30;2.90;;;;;;;;;;107341;1251;61350;-83
2023/08/14 10:13:27;;;;;;;5.80;3.20;;;;;;;;;;107272;1256;61281;-83
2023/08/14 10:15:53;;;;;;;4.10;2.20;;;;;;;;;;107077;1251;61131;-83
2023/08/14 10:18:20;;;;;;;3.40;2.00;;;;;;;;;;107214;1251;61219;-83
2023/08/14 10:20:46;;;;;;;;;;;;;;;;;;107389;1252;62600;-83
2023/08/14 10:23:13;;;;;;;4.90;2.60;;;;;;;;;;107448;1254;61374;-83
2023/08/14 10:25:39;;;;;;;2.60;2.10;;;;;;;;;;107266;1255;61231;-83
2023/08/14 10:28:07;;;;;;;3.90;3.00;;;;;;;;;;107314;1251;63191;-82
2023/08/14 10:30:33;;;;;;;2.60;2.10;;;;;;;;;;107228;1251;61232;-83
2023/08/14 10:33:00;;;;;;;4.80;2.70;;;;;;;;;;107015;1254;61131;-84
2023/08/14 10:35:27;;;;;;;5.00;2.20;;;;;;;;;;107184;1251;61335;-84
2023/08/14 10:37:53;;;;;;;5.20;2.20;;;;;;;;;;107231;1251;63568;-83
2023/08/14 10:40:20;;;;;;;3.20;2.00;;;;;;;;;;107104;1251;61240;-83
2023/08/14 10:42:47;;;;;;;;;;;;;;;;;;107097;1254;61218;-83
2023/08/14 10:45:17;;;;;;;6.80;2.80;;;;;;;;;;107225;1251;61327;-83
2023/08/14 10:47:44;;;;;;;3.60;2.50;;;;;;;;;;107288;1251;61365;-82
2023/08/14 10:50:28;;;;;;;3.80;2.40;;;;;;;;;;107144;1254;61317;-82
2023/08/14 10:52:55;;;;;;;3.20;2.20;;;;;;;;;;107111;1255;61327;-83
2023/08/14 10:55:36;;;;;;;5.20;2.40;;;;;;;;;;107067;1251;61294;-82
2023/08/14 10:58:22;;;;;;;3.40;2.50;;;;;;;;;;107309;1251;61788;-82
2023/08/14 11:00:48;;;;;;;12.40;3.90;;;;;;;;;;107248;1251;61233;-82
2023/08/14 11:03:14;;;;;;;6.00;2.90;;;;;;;;;;107068;1251;61365;-82
2023/08/14 11:05:41;;;;;;;6.50;2.60;;;;;;;;;;107132;1253;61255;-82
2023/08/14 11:08:07;;;;;;;4.30;2.70;;;;;;;;;;107297;1251;61241;-81
2023/08/14 11:10:34;;;;;;;3.00;2.00;;;;;;;;;;107157;1251;60443;-82
2023/08/14 11:13:01;;;;;;;3.60;2.40;;;;;;;;;;106977;1251;61154;-82
2023/08/14 11:15:30;;;;;;;6.80;2.10;;;;;;;;;;107269;1250;61270;-81
2023/08/14 11:17:56;;;;;;;9.90;2.40;;;;;;;;;;107249;1251;61244;-82
2023/08/14 11:20:25;;;;;;;3.50;2.10;;;;;;;;;;107069;1251;62304;-82
2023/08/14 11:22:52;;;;;;;2.90;2.20;;;;;;;;;;107036;1250;61578;-82
2023/08/14 11:25:18;;;;;;;4.30;2.40;;;;;;;;;;107088;1253;61254;-82
2023/08/14 11:27:49;;;;;;;9.00;2.50;;;;;;;;;;107252;1251;61336;-82
2023/08/14 11:30:16;;;;;;;4.50;3.00;;;;;;;;;;107078;1251;61093;-82
2023/08/14 11:32:42;;;;;;;5.50;2.50;;;;;;;;;;107138;1250;59756;-81
2023/08/14 11:35:09;;;;;;;3.80;3.00;;;;;;;;;;107071;1251;59508;-82
2023/08/14 11:37:35;;;;;;;4.70;3.10;;;;;;;;;;107353;1254;59198;-82
2023/08/14 11:40:06;;;;;;;6.40;3.70;;;;;;;;;;107158;1251;61259;-81
2023/08/14 11:42:33;;;;;;;13.00;8.50;;;;;;;;;;107007;1251;61251;-82
2023/08/14 11:45:03;;;;;;;6.40;3.30;;;;;;;;;;107084;1253;61280;-81
2023/08/14 11:47:30;;;;;;;5.20;2.90;;;;;;;;;;107205;1251;62692;-81
2023/08/14 11:49:56;;;;;;;3.90;2.50;;;;;;;;;;107102;1251;61020;-81
2023/08/14 11:52:24;;;;;;;5.10;2.30;;;;;;;;;;107093;1251;61225;-82
2023/08/14 11:54:51;;;;;;;4.30;2.80;;;;;;;;;;107077;1251;61273;-82
2023/08/14 11:57:17;;;;;;;6.60;2.70;;;;;;;;;;107167;1251;61250;-82
2023/08/14 11:59:44;;;;;;;5.60;2.50;;;;;;;;;;107147;1251;61270;-82
2023/08/14 12:02:10;;;;;;;8.90;3.20;;;;;;;;;;106967;1251;61468;-82
2023/08/14 12:04:40;;;;;;;3.10;2.00;;;;;;;;;;107020;1253;62243;-82
2023/08/14 12:07:07;;;;;;;14.20;8.90;;;;;;;;;;107191;1253;59552;-81
2023/08/14 12:09:34;;;;;;;4.90;3.20;;;;;;;;;;107240;1253;59095;-81
2023/08/14 12:12:00;;;;;;;5.40;2.90;;;;;;;;;;107048;1251;61060;-82
2023/08/14 12:14:36;;;;;;;3.80;2.70;;;;;;;;;;108147;1251;61126;-82
2023/08/14 12:17:09;;;;;;;4.70;2.60;;;;;;;;;;107216;1251;61241;-82
2023/08/14 12:19:39;;;;;;;5.30;2.80;;;;;;;;;;107129;1251;61342;-82
2023/08/14 12:22:05;;;;;;;6.00;2.80;;;;;;;;;;107099;1251;61195;-82
2023/08/14 12:24:38;;;;;;;3.70;3.20;;;;;;;;;;107107;1251;61219;-82
2023/08/14 12:27:15;;;;;;;7.90;2.90;;;;;;;;;;107143;1251;59185;-82
2023/08/14 12:29:41;;;;;;;3.00;2.30;;;;;;;;;;107181;1252;61240;-82
2023/08/14 12:32:08;;;;;;;4.20;2.70;;;;;;;;;;107080;1251;61749;-82
2023/08/14 12:34:34;;;;;;;7.30;2.70;;;;;;;;;;107036;1251;61350;-82
2023/08/14 12:37:02;;;;;;;4.80;2.70;;;;;;;;;;107178;1251;61221;-82
2023/08/14 12:39:29;;;;;;;4.90;2.40;;;;;;;;;;107189;1251;61093;-82
2023/08/14 12:41:55;;;;;;;4.30;2.80;;;;;;;;;;107060;1251;61313;-84
2023/08/14 12:44:21;;;;;;;5.70;2.40;;;;;;;;;;106990;1251;61238;-83
2023/08/14 12:46:48;;;;;;;3.50;2.20;;;;;;;;;;107215;1251;59630;-83
2023/08/14 12:49:14;;;;;;;8.80;2.80;;;;;;;;;;107092;1251;61398;-83
2023/08/14 12:51:41;;;;;;;6.60;2.30;;;;;;;;;;107103;1253;62279;-83
2023/08/14 12:54:09;;;;;;;4.80;2.30;;;;;;;;;;107007;1251;62312;-83
2023/08/14 12:56:38;;;;;;;5.70;2.10;;;;;;;;;;107065;1251;61245;-83
2023/08/14 12:59:05;;;;;;;4.20;2.40;;;;;;;;;;107156;1251;61226;-83
2023/08/14 13:01:32;;;;;;;4.50;2.30;;;;;;;;;;107192;1254;62743;-83
2023/08/14 13:03:58;;;;;;;5.10;2.30;;;;;;;;;;107207;1251;61306;-84
2023/08/14 13:06:25;;;;;;;9.90;2.40;;;;;;;;;;107518;1251;61231;-84
2023/08/14 13:08:52;;;;;;;9.80;2.90;;;;;;;;;;107227;1251;61323;-84
2023/08/14 13:11:18;;;;;;;;;;;;;;;;;;107117;1251;61193;-84
2023/08/14 13:13:45;;;;;;;5.30;2.30;;;;;;;;;;107143;1254;59450;-84
2023/08/14 13:16:11;;;;;;;4.10;1.80;;;;;;;;;;107220;1254;61132;-84
2023/08/14 13:18:37;;;;;;;;;;;;;;;;;;107297;1251;61442;-83
2023/08/14 13:21:04;;;;;;;5.10;2.00;;;;;;;;;;107106;1251;61224;-83
2023/08/14 13:23:30;;;;;;;;;;;;;;;;;;107109;1253;61133;-83
2023/08/14 13:25:57;;;;;;;6.60;2.00;;;;;;;;;;107080;1251;61279;-83
2023/08/14 13:28:23;;;;;;;;;;;;;;;;;;107180;1251;61356;-83
2023/08/14 13:30:50;;;;;;;2.90;2.00;;;;;;;;;;107019;1253;61437;-83
2023/08/14 13:33:16;;;;;;;2.50;2.10;;;;;;;;;;107063;1251;61218;-83
2023/08/14 13:35:42;;;;;;;;;;;;;;;;;;106999;1251;61194;-83
2023/08/14 13:38:09;;;;;;;4.40;2.80;;;;;;;;;;107214;1251;62309;-84
2023/08/14 13:40:35;;;;;;;;;;;;;;;;;;107026;1253;61135;-83
2023/08/14 13:43:01;;;;;;;3.70;2.20;;;;;;;;;;106960;1251;61199;-83
2023/08/14 13:45:29;;;;;;;;;;;;;;;;;;107001;1253;61394;-83
2023/08/14 13:47:56;;;;;;;2.50;2.00;;;;;;;;;;107265;1254;61401;-83
2023/08/14 13:50:29;;;;;;;6.70;2.30;;;;;;;;;;107065;1254;61204;-83
2023/08/14 13:52:55;;;;;;;3.10;2.40;;;;;;;;;;107267;1251;61124;-83
2023/08/14 13:55:21;;;;;;;2.90;1.90;;;;;;;;;;107233;1251;61203;-83
2023/08/14 13:57:48;;;;;;;;;;;;;;;;;;107496;1252;61221;-83
2023/08/14 14:00:14;;;;;;;5.00;2.10;;;;;;;;;;107241;1251;59914;-83
2023/08/14 14:02:41;;;;;;;;;;;;;;;;;;107294;1251;59861;-83
2023/08/14 14:05:07;;;;;;;6.80;2.60;;;;;;;;;;107076;1253;61353;-83
2023/08/14 14:07:34;;;;;;;5.50;2.30;;;;;;;;;;107264;1251;61104;-83
2023/08/14 14:10:00;;;;;;;7.40;2.40;;;;;;;;;;107027;1253;61261;-82
2023/08/14 14:12:28;;;;;;;3.30;2.60;;;;;;;;;;106977;1253;61216;-83
2023/08/14 14:14:54;;;;;;;;;;;;;;;;;;107110;1255;62931;-82
2023/08/14 14:17:20;;;;;;;4.40;3.40;;;;;;;;;;107761;1253;61308;-82
2023/08/14 14:19:47;;;;;;;7.50;2.90;;;;;;;;;;107335;1251;61266;-82
2023/08/14 14:22:13;;;;;;;7.50;2.70;;;;;;;;;;107749;1251;61320;-82
2023/08/14 14:24:39;;;;;;;4.60;2.60;;;;;;;;;;107358;1251;61190;-83
2023/08/14 14:27:06;;;;;;;5.20;3.40;;;;;;;;;;107308;1251;61266;-82